This is the latest recevied weather packets stored in our database for station/object IR9AK-10. If no packets are shown the sender has not sent any weather packets the latest 10 day(s).
| Time | Temp. | Humidity | Pressure | Rain* | Wind** | Luminosity | Snow |
|---|---|---|---|---|---|---|---|
| 1778054100 | 23.89° C | 47% | 1058.8 hPa | - | - | - | - |
| 1778053501 | 23.89° C | 46% | 1058.9 hPa | - | - | - | - |
| 1778052901 | 23.33° C | 47% | 1059 hPa | - | - | - | - |
| 1778052301 | 22.78° C | 48% | 1059.2 hPa | - | - | - | - |
| 1778051702 | 23.33° C | 47% | 1059.2 hPa | - | - | - | - |
| 1778051103 | 23.33° C | 46% | 1059.1 hPa | - | - | - | - |
| 1778050504 | 23.89° C | 42% | 1059.2 hPa | - | - | - | - |
| 1778049905 | 23.33° C | 42% | 1059.2 hPa | - | - | - | - |
| 1778049308 | 22.78° C | 42% | 1059.3 hPa | - | - | - | - |
| 1778048706 | 23.33° C | 44% | 1059.4 hPa | - | - | - | - |
| 1778048108 | 22.78° C | 45% | 1059.4 hPa | - | - | - | - |
| 1778047508 | 22.78° C | 46% | 1059.3 hPa | - | - | - | - |
| 1778046910 | 22.78° C | 45% | 1059.1 hPa | - | - | - | - |
| 1778046310 | 21.67° C | 50% | 1059 hPa | - | - | - | - |
| 1778045711 | 21.67° C | 46% | 1058.8 hPa | - | - | - | - |
| 1778045111 | 21.67° C | 47% | 1058.7 hPa | - | - | - | - |
| 1778044513 | 20.56° C | 51% | 1058.5 hPa | - | - | - | - |
| 1778043914 | 20° C | 50% | 1058.4 hPa | - | - | - | - |
| 1778043315 | 20° C | 48% | 1058.2 hPa | - | - | - | - |
| 1778042715 | 20° C | 51% | 1058.2 hPa | - | - | - | - |
| 1778042117 | 20° C | 52% | 1058.2 hPa | - | - | - | - |
| 1778041517 | 20° C | 53% | 1058.2 hPa | - | - | - | - |
| 1778040917 | 20° C | 52% | 1058 hPa | - | - | - | - |
| 1778040319 | 20° C | 50% | 1057.9 hPa | - | - | - | - |
| 1778039719 | 20.56° C | 47% | 1057.9 hPa | - | - | - | - |
* Rain since midnight (hover to see other rain measurements)
** Current wind speed in m/s (hover to see current wind gust speed)